sensor_id;sensor_type;location;lat;lon;timestamp;pressure;altitude;pressure_sealevel;temperature
68127;BMP180;54931;52.098;21.006;2022-12-15T00:03:06;98931.40;;;-4.90
68127;BMP180;54931;52.098;21.006;2022-12-15T00:05:52;98922.60;;;-4.90
68127;BMP180;54931;52.098;21.006;2022-12-15T00:08:39;98928.80;;;-4.90
68127;BMP180;54931;52.098;21.006;2022-12-15T00:11:25;98926.60;;;-4.98
68127;BMP180;54931;52.098;21.006;2022-12-15T00:14:11;98928.60;;;-5.00
68127;BMP180;54931;52.098;21.006;2022-12-15T00:16:57;98928.20;;;-5.00
68127;BMP180;54931;52.098;21.006;2022-12-15T00:19:43;98920.40;;;-5.00
68127;BMP180;54931;52.098;21.006;2022-12-15T00:22:30;98924.80;;;-4.98
68127;BMP180;54931;52.098;21.006;2022-12-15T00:25:15;98923.40;;;-4.92
68127;BMP180;54931;52.098;21.006;2022-12-15T00:28:01;98927.80;;;-4.90
68127;BMP180;54931;52.098;21.006;2022-12-15T00:30:48;98924.60;;;-4.90
68127;BMP180;54931;52.098;21.006;2022-12-15T00:33:35;98916.80;;;-4.90
68127;BMP180;54931;52.098;21.006;2022-12-15T00:36:21;98914.40;;;-4.90
68127;BMP180;54931;52.098;21.006;2022-12-15T00:39:07;98921.00;;;-4.90
68127;BMP180;54931;52.098;21.006;2022-12-15T00:41:34;98915.40;;;-4.90
68127;BMP180;54931;52.098;21.006;2022-12-15T00:44:03;98919.00;;;-4.82
68127;BMP180;54931;52.098;21.006;2022-12-15T00:46:30;98910.00;;;-4.80
68127;BMP180;54931;52.098;21.006;2022-12-15T00:49:16;98911.00;;;-4.80
68127;BMP180;54931;52.098;21.006;2022-12-15T00:52:03;98908.40;;;-4.80
68127;BMP180;54931;52.098;21.006;2022-12-15T00:54:49;98910.20;;;-4.86
68127;BMP180;54931;52.098;21.006;2022-12-15T00:57:36;98907.00;;;-4.90
68127;BMP180;54931;52.098;21.006;2022-12-15T01:00:22;98909.40;;;-4.86
68127;BMP180;54931;52.098;21.006;2022-12-15T01:03:15;98908.40;;;-4.80
68127;BMP180;54931;52.098;21.006;2022-12-15T01:06:12;98902.60;;;-4.80
68127;BMP180;54931;52.098;21.006;2022-12-15T01:08:59;98903.20;;;-4.80
68127;BMP180;54931;52.098;21.006;2022-12-15T01:11:46;98897.20;;;-4.80
68127;BMP180;54931;52.098;21.006;2022-12-15T01:14:33;98893.20;;;-4.82
68127;BMP180;54931;52.098;21.006;2022-12-15T01:17:20;98893.20;;;-4.90
68127;BMP180;54931;52.098;21.006;2022-12-15T01:20:08;98897.60;;;-4.80
68127;BMP180;54931;52.098;21.006;2022-12-15T01:22:54;98900.80;;;-4.78
68127;BMP180;54931;52.098;21.006;2022-12-15T01:25:24;98902.00;;;-4.70
68127;BMP180;54931;52.098;21.006;2022-12-15T01:27:51;98900.00;;;-4.70
68127;BMP180;54931;52.098;21.006;2022-12-15T01:30:23;98905.60;;;-4.70
68127;BMP180;54931;52.098;21.006;2022-12-15T01:32:52;98897.20;;;-4.70
68127;BMP180;54931;52.098;21.006;2022-12-15T01:35:21;98899.40;;;-4.72
68127;BMP180;54931;52.098;21.006;2022-12-15T01:37:48;98903.00;;;-4.74
68127;BMP180;54931;52.098;21.006;2022-12-15T01:40:18;98905.40;;;-4.70
68127;BMP180;54931;52.098;21.006;2022-12-15T01:43:19;98900.60;;;-4.62
68127;BMP180;54931;52.098;21.006;2022-12-15T01:45:55;98904.00;;;-4.60
68127;BMP180;54931;52.098;21.006;2022-12-15T01:49:28;98901.20;;;-4.58
68127;BMP180;54931;52.098;21.006;2022-12-15T01:51:59;98899.00;;;-4.50
68127;BMP180;54931;52.098;21.006;2022-12-15T01:54:37;98901.00;;;-4.50
68127;BMP180;54931;52.098;21.006;2022-12-15T01:57:18;98899.60;;;-4.50
68127;BMP180;54931;52.098;21.006;2022-12-15T01:59:54;98895.80;;;-4.60
68127;BMP180;54931;52.098;21.006;2022-12-15T02:02:26;98890.20;;;-4.54
68127;BMP180;54931;52.098;21.006;2022-12-15T02:04:57;98891.40;;;-4.50
68127;BMP180;54931;52.098;21.006;2022-12-15T02:07:26;98887.80;;;-4.46
68127;BMP180;54931;52.098;21.006;2022-12-15T02:09:57;98888.60;;;-4.40
68127;BMP180;54931;52.098;21.006;2022-12-15T02:12:43;98888.20;;;-4.40
68127;BMP180;54931;52.098;21.006;2022-12-15T02:15:47;98897.40;;;-4.40
68127;BMP180;54931;52.098;21.006;2022-12-15T02:18:25;98903.40;;;-4.40
68127;BMP180;54931;52.098;21.006;2022-12-15T02:21:37;98904.60;;;-4.48
68127;BMP180;54931;52.098;21.006;2022-12-15T02:24:37;98901.40;;;-4.50
68127;BMP180;54931;52.098;21.006;2022-12-15T02:27:46;98898.20;;;-4.40
68127;BMP180;54931;52.098;21.006;2022-12-15T02:30:41;98901.00;;;-4.40
68127;BMP180;54931;52.098;21.006;2022-12-15T02:33:26;98902.40;;;-4.40
68127;BMP180;54931;52.098;21.006;2022-12-15T02:36:44;98903.80;;;-4.50
68127;BMP180;54931;52.098;21.006;2022-12-15T02:38:52;98900.00;;;-4.50
68127;BMP180;54931;52.098;21.006;2022-12-15T02:41:38;98901.40;;;-4.46
68127;BMP180;54931;52.098;21.006;2022-12-15T02:44:25;98907.60;;;-4.50
68127;BMP180;54931;52.098;21.006;2022-12-15T02:49:52;98916.20;;;-4.40
68127;BMP180;54931;52.098;21.006;2022-12-15T02:57:59;98915.80;;;-4.44
68127;BMP180;54931;52.098;21.006;2022-12-15T03:00:32;98920.60;;;-4.44
68127;BMP180;54931;52.098;21.006;2022-12-15T03:03:04;98920.20;;;-4.40
68127;BMP180;54931;52.098;21.006;2022-12-15T03:05:32;98920.20;;;-4.30
68127;BMP180;54931;52.098;21.006;2022-12-15T03:07:59;98924.40;;;-4.30
68127;BMP180;54931;52.098;21.006;2022-12-15T03:10:28;98923.20;;;-4.28
68127;BMP180;54931;52.098;21.006;2022-12-15T03:12:55;98923.20;;;-4.30
68127;BMP180;54931;52.098;21.006;2022-12-15T03:15:25;98923.80;;;-4.30
68127;BMP180;54931;52.098;21.006;2022-12-15T03:17:52;98922.20;;;-4.40
68127;BMP180;54931;52.098;21.006;2022-12-15T03:20:20;98932.00;;;-4.40
68127;BMP180;54931;52.098;21.006;2022-12-15T03:22:47;98933.40;;;-4.40
68127;BMP180;54931;52.098;21.006;2022-12-15T03:25:15;98930.60;;;-4.40
68127;BMP180;54931;52.098;21.006;2022-12-15T03:27:45;98930.80;;;-4.40
68127;BMP180;54931;52.098;21.006;2022-12-15T03:30:13;98932.40;;;-4.40
68127;BMP180;54931;52.098;21.006;2022-12-15T03:32:41;98937.80;;;-4.40
68127;BMP180;54931;52.098;21.006;2022-12-15T03:35:09;98938.00;;;-4.40
68127;BMP180;54931;52.098;21.006;2022-12-15T03:37:40;98936.80;;;-4.42
68127;BMP180;54931;52.098;21.006;2022-12-15T03:40:11;98942.20;;;-4.40
68127;BMP180;54931;52.098;21.006;2022-12-15T03:42:43;98945.60;;;-4.40
68127;BMP180;54931;52.098;21.006;2022-12-15T03:45:23;98945.80;;;-4.40
68127;BMP180;54931;52.098;21.006;2022-12-15T03:47:53;98942.40;;;-4.40
68127;BMP180;54931;52.098;21.006;2022-12-15T03:50:25;98945.20;;;-4.40
68127;BMP180;54931;52.098;21.006;2022-12-15T03:53:01;98945.60;;;-4.40
68127;BMP180;54931;52.098;21.006;2022-12-15T03:55:30;98946.60;;;-4.38
68127;BMP180;54931;52.098;21.006;2022-12-15T03:57:58;98945.00;;;-4.32
68127;BMP180;54931;52.098;21.006;2022-12-15T04:00:26;98947.60;;;-4.30
68127;BMP180;54931;52.098;21.006;2022-12-15T04:02:54;98950.80;;;-4.30
68127;BMP180;54931;52.098;21.006;2022-12-15T04:05:31;98954.00;;;-4.30
68127;BMP180;54931;52.098;21.006;2022-12-15T04:08:00;98952.80;;;-4.30
68127;BMP180;54931;52.098;21.006;2022-12-15T04:10:31;98951.20;;;-4.40
68127;BMP180;54931;52.098;21.006;2022-12-15T04:13:04;98947.80;;;-4.50
68127;BMP180;54931;52.098;21.006;2022-12-15T04:15:33;98949.80;;;-4.50
68127;BMP180;54931;52.098;21.006;2022-12-15T04:18:04;98949.60;;;-4.40
68127;BMP180;54931;52.098;21.006;2022-12-15T04:20:32;98954.40;;;-4.40
68127;BMP180;54931;52.098;21.006;2022-12-15T04:23:00;98965.60;;;-4.40
68127;BMP180;54931;52.098;21.006;2022-12-15T04:25:28;98967.20;;;-4.40
68127;BMP180;54931;52.098;21.006;2022-12-15T04:28:14;98968.20;;;-4.30
68127;BMP180;54931;52.098;21.006;2022-12-15T04:31:08;98962.80;;;-4.30
68127;BMP180;54931;52.098;21.006;2022-12-15T04:33:59;98962.60;;;-4.20
68127;BMP180;54931;52.098;21.006;2022-12-15T04:36:49;98966.00;;;-4.20
68127;BMP180;54931;52.098;21.006;2022-12-15T04:39:43;98968.20;;;-4.20
68127;BMP180;54931;52.098;21.006;2022-12-15T04:42:34;98971.80;;;-4.20
68127;BMP180;54931;52.098;21.006;2022-12-15T04:45:24;98985.20;;;-4.20
68127;BMP180;54931;52.098;21.006;2022-12-15T04:48:11;98990.80;;;-4.20
68127;BMP180;54931;52.098;21.006;2022-12-15T04:50:58;98994.00;;;-4.20
68127;BMP180;54931;52.098;21.006;2022-12-15T04:53:45;99000.80;;;-4.30
68127;BMP180;54931;52.098;21.006;2022-12-15T04:56:31;99000.40;;;-4.30
68127;BMP180;54931;52.098;21.006;2022-12-15T04:59:18;99002.40;;;-4.30
68127;BMP180;54931;52.098;21.006;2022-12-15T05:02:04;99002.80;;;-4.30
68127;BMP180;54931;52.098;21.006;2022-12-15T05:04:50;99007.40;;;-4.40
68127;BMP180;54931;52.098;21.006;2022-12-15T05:07:37;99006.00;;;-4.50
68127;BMP180;54931;52.098;21.006;2022-12-15T05:10:23;99016.00;;;-4.50
68127;BMP180;54931;52.098;21.006;2022-12-15T05:13:09;99021.40;;;-4.50
68127;BMP180;54931;52.098;21.006;2022-12-15T05:15:55;99030.40;;;-4.50
68127;BMP180;54931;52.098;21.006;2022-12-15T05:18:42;99033.60;;;-4.50
68127;BMP180;54931;52.098;21.006;2022-12-15T05:21:29;99041.40;;;-4.50
68127;BMP180;54931;52.098;21.006;2022-12-15T05:24:16;99048.40;;;-4.50
68127;BMP180;54931;52.098;21.006;2022-12-15T05:27:02;99046.60;;;-4.50
68127;BMP180;54931;52.098;21.006;2022-12-15T05:29:48;99048.60;;;-4.50
68127;BMP180;54931;52.098;21.006;2022-12-15T05:32:35;99050.40;;;-4.50
68127;BMP180;54931;52.098;21.006;2022-12-15T05:35:03;99057.20;;;-4.50
68127;BMP180;54931;52.098;21.006;2022-12-15T05:37:31;99061.60;;;-4.54
68127;BMP180;54931;52.098;21.006;2022-12-15T05:39:59;99063.00;;;-4.60
68127;BMP180;54931;52.098;21.006;2022-12-15T05:42:26;99063.20;;;-4.60
68127;BMP180;54931;52.098;21.006;2022-12-15T05:44:54;99069.20;;;-4.58
68127;BMP180;54931;52.098;21.006;2022-12-15T05:47:22;99079.20;;;-4.60
68127;BMP180;54931;52.098;21.006;2022-12-15T05:49:50;99084.20;;;-4.54
68127;BMP180;54931;52.098;21.006;2022-12-15T05:52:17;99087.00;;;-4.60
68127;BMP180;54931;52.098;21.006;2022-12-15T05:54:45;99094.80;;;-4.60
68127;BMP180;54931;52.098;21.006;2022-12-15T05:57:12;99096.80;;;-4.60
68127;BMP180;54931;52.098;21.006;2022-12-15T05:59:40;99098.40;;;-4.60
68127;BMP180;54931;52.098;21.006;2022-12-15T06:02:08;99110.00;;;-4.58
68127;BMP180;54931;52.098;21.006;2022-12-15T06:04:36;99113.40;;;-4.50
68127;BMP180;54931;52.098;21.006;2022-12-15T06:07:03;99118.00;;;-4.50
68127;BMP180;54931;52.098;21.006;2022-12-15T06:09:31;99124.80;;;-4.44
68127;BMP180;54931;52.098;21.006;2022-12-15T06:11:59;99126.40;;;-4.40
68127;BMP180;54931;52.098;21.006;2022-12-15T06:14:26;99131.00;;;-4.40
68127;BMP180;54931;52.098;21.006;2022-12-15T06:16:54;99138.60;;;-4.40
68127;BMP180;54931;52.098;21.006;2022-12-15T06:19:22;99143.20;;;-4.30
68127;BMP180;54931;52.098;21.006;2022-12-15T06:21:49;99148.20;;;-4.30
68127;BMP180;54931;52.098;21.006;2022-12-15T06:24:17;99148.20;;;-4.30
68127;BMP180;54931;52.098;21.006;2022-12-15T06:26:46;99148.60;;;-4.30
68127;BMP180;54931;52.098;21.006;2022-12-15T06:29:14;99155.80;;;-4.20
68127;BMP180;54931;52.098;21.006;2022-12-15T06:31:42;99157.80;;;-4.20
68127;BMP180;54931;52.098;21.006;2022-12-15T06:34:13;99162.20;;;-4.20
68127;BMP180;54931;52.098;21.006;2022-12-15T06:36:42;99168.40;;;-4.10
68127;BMP180;54931;52.098;21.006;2022-12-15T06:39:13;99173.20;;;-4.10
68127;BMP180;54931;52.098;21.006;2022-12-15T06:41:43;99178.20;;;-4.20
68127;BMP180;54931;52.098;21.006;2022-12-15T06:44:14;99183.40;;;-4.20
68127;BMP180;54931;52.098;21.006;2022-12-15T06:46:42;99194.80;;;-4.10
68127;BMP180;54931;52.098;21.006;2022-12-15T06:49:12;99197.60;;;-4.10
68127;BMP180;54931;52.098;21.006;2022-12-15T06:51:42;99208.20;;;-4.10
68127;BMP180;54931;52.098;21.006;2022-12-15T06:54:15;99211.60;;;-4.10
68127;BMP180;54931;52.098;21.006;2022-12-15T06:56:43;99215.60;;;-4.08
68127;BMP180;54931;52.098;21.006;2022-12-15T06:59:11;99221.60;;;-4.00
68127;BMP180;54931;52.098;21.006;2022-12-15T07:01:39;99227.40;;;-4.00
68127;BMP180;54931;52.098;21.006;2022-12-15T07:04:07;99223.40;;;-4.10
68127;BMP180;54931;52.098;21.006;2022-12-15T07:06:38;99223.20;;;-4.10
68127;BMP180;54931;52.098;21.006;2022-12-15T07:09:12;99221.20;;;-4.10
68127;BMP180;54931;52.098;21.006;2022-12-15T07:11:42;99222.60;;;-4.10
68127;BMP180;54931;52.098;21.006;2022-12-15T07:14:10;99224.60;;;-4.10
68127;BMP180;54931;52.098;21.006;2022-12-15T07:16:38;99233.80;;;-4.10
68127;BMP180;54931;52.098;21.006;2022-12-15T07:19:10;99241.00;;;-4.10
68127;BMP180;54931;52.098;21.006;2022-12-15T07:21:40;99247.40;;;-4.02
68127;BMP180;54931;52.098;21.006;2022-12-15T07:24:10;99251.20;;;-4.00
68127;BMP180;54931;52.098;21.006;2022-12-15T07:26:40;99258.80;;;-4.00
68127;BMP180;54931;52.098;21.006;2022-12-15T07:29:09;99269.40;;;-4.00
68127;BMP180;54931;52.098;21.006;2022-12-15T07:31:37;99278.00;;;-4.00
68127;BMP180;54931;52.098;21.006;2022-12-15T07:34:04;99280.20;;;-3.92
68127;BMP180;54931;52.098;21.006;2022-12-15T07:36:32;99287.60;;;-3.90
68127;BMP180;54931;52.098;21.006;2022-12-15T07:39:02;99296.60;;;-3.90
68127;BMP180;54931;52.098;21.006;2022-12-15T07:41:31;99297.80;;;-3.84
68127;BMP180;54931;52.098;21.006;2022-12-15T07:43:58;99298.60;;;-3.80
68127;BMP180;54931;52.098;21.006;2022-12-15T07:46:27;99306.40;;;-3.80
68127;BMP180;54931;52.098;21.006;2022-12-15T07:48:56;99306.60;;;-3.80
68127;BMP180;54931;52.098;21.006;2022-12-15T07:51:24;99306.00;;;-3.78
68127;BMP180;54931;52.098;21.006;2022-12-15T07:53:52;99313.20;;;-3.80
68127;BMP180;54931;52.098;21.006;2022-12-15T07:56:20;99318.00;;;-3.70
68127;BMP180;54931;52.098;21.006;2022-12-15T07:58:50;99318.60;;;-3.70
68127;BMP180;54931;52.098;21.006;2022-12-15T08:01:18;99320.60;;;-3.66
68127;BMP180;54931;52.098;21.006;2022-12-15T08:03:47;99323.40;;;-3.70
68127;BMP180;54931;52.098;21.006;2022-12-15T08:06:15;99331.00;;;-3.68
68127;BMP180;54931;52.098;21.006;2022-12-15T08:08:44;99332.20;;;-3.64
68127;BMP180;54931;52.098;21.006;2022-12-15T08:11:15;99331.20;;;-3.60
68127;BMP180;54931;52.098;21.006;2022-12-15T08:13:43;99339.00;;;-3.56
68127;BMP180;54931;52.098;21.006;2022-12-15T08:16:11;99343.80;;;-3.50
68127;BMP180;54931;52.098;21.006;2022-12-15T08:18:39;99344.80;;;-3.50
68127;BMP180;54931;52.098;21.006;2022-12-15T08:21:09;99343.80;;;-3.50
68127;BMP180;54931;52.098;21.006;2022-12-15T08:23:38;99336.40;;;-3.50
68127;BMP180;54931;52.098;21.006;2022-12-15T08:26:11;99342.40;;;-3.42
68127;BMP180;54931;52.098;21.006;2022-12-15T08:28:41;99344.40;;;-3.44
68127;BMP180;54931;52.098;21.006;2022-12-15T08:31:13;99354.00;;;-3.50
68127;BMP180;54931;52.098;21.006;2022-12-15T08:33:44;99355.40;;;-3.40
68127;BMP180;54931;52.098;21.006;2022-12-15T08:36:16;99370.40;;;-3.40
68127;BMP180;54931;52.098;21.006;2022-12-15T08:38:45;99370.80;;;-3.40
68127;BMP180;54931;52.098;21.006;2022-12-15T08:41:16;99375.60;;;-3.40
68127;BMP180;54931;52.098;21.006;2022-12-15T08:43:46;99385.00;;;-3.40
68127;BMP180;54931;52.098;21.006;2022-12-15T08:46:21;99384.60;;;-3.40
68127;BMP180;54931;52.098;21.006;2022-12-15T08:48:51;99388.00;;;-3.40
68127;BMP180;54931;52.098;21.006;2022-12-15T08:51:21;99393.60;;;-3.30
68127;BMP180;54931;52.098;21.006;2022-12-15T08:53:49;99393.00;;;-3.30
68127;BMP180;54931;52.098;21.006;2022-12-15T08:56:19;99396.80;;;-3.20
68127;BMP180;54931;52.098;21.006;2022-12-15T08:58:49;99394.20;;;-3.20
68127;BMP180;54931;52.098;21.006;2022-12-15T09:01:20;99400.80;;;-3.22
68127;BMP180;54931;52.098;21.006;2022-12-15T09:03:50;99402.00;;;-3.20
68127;BMP180;54931;52.098;21.006;2022-12-15T09:06:26;99408.40;;;-3.26
68127;BMP180;54931;52.098;21.006;2022-12-15T09:08:57;99410.60;;;-3.22
68127;BMP180;54931;52.098;21.006;2022-12-15T09:11:28;99416.20;;;-3.20
68127;BMP180;54931;52.098;21.006;2022-12-15T09:13:57;99411.60;;;-3.18
68127;BMP180;54931;52.098;21.006;2022-12-15T09:16:26;99405.60;;;-3.10
68127;BMP180;54931;52.098;21.006;2022-12-15T09:18:57;99410.60;;;-3.10
68127;BMP180;54931;52.098;21.006;2022-12-15T09:21:28;99421.40;;;-3.10
68127;BMP180;54931;52.098;21.006;2022-12-15T09:24:00;99429.00;;;-3.10
68127;BMP180;54931;52.098;21.006;2022-12-15T09:26:33;99438.80;;;-3.10
68127;BMP180;54931;52.098;21.006;2022-12-15T09:29:01;99441.40;;;-3.10
68127;BMP180;54931;52.098;21.006;2022-12-15T09:31:35;99443.00;;;-3.10
68127;BMP180;54931;52.098;21.006;2022-12-15T09:34:04;99447.20;;;-3.14
68127;BMP180;54931;52.098;21.006;2022-12-15T09:36:32;99444.40;;;-3.10
68127;BMP180;54931;52.098;21.006;2022-12-15T09:39:00;99445.20;;;-3.10
68127;BMP180;54931;52.098;21.006;2022-12-15T09:41:32;99442.00;;;-3.10
68127;BMP180;54931;52.098;21.006;2022-12-15T09:44:15;99447.00;;;-3.00
68127;BMP180;54931;52.098;21.006;2022-12-15T09:52:49;99448.60;;;-3.00
68127;BMP180;54931;52.098;21.006;2022-12-15T09:55:28;99452.40;;;-3.00
68127;BMP180;54931;52.098;21.006;2022-12-15T10:00:44;99458.60;;;-3.10
68127;BMP180;54931;52.098;21.006;2022-12-15T10:06:44;99465.80;;;-3.02
68127;BMP180;54931;52.098;21.006;2022-12-15T10:09:26;99468.80;;;-3.00
68127;BMP180;54931;52.098;21.006;2022-12-15T10:15:06;99469.20;;;-3.00
68127;BMP180;54931;52.098;21.006;2022-12-15T10:17:44;99469.20;;;-2.98
68127;BMP180;54931;52.098;21.006;2022-12-15T10:20:21;99479.40;;;-2.90
68127;BMP180;54931;52.098;21.006;2022-12-15T10:22:51;99488.60;;;-2.90
68127;BMP180;54931;52.098;21.006;2022-12-15T10:25:26;99483.40;;;-3.00
68127;BMP180;54931;52.098;21.006;2022-12-15T10:31:29;99481.60;;;-3.00
68127;BMP180;54931;52.098;21.006;2022-12-15T10:34:35;99491.80;;;-3.00
68127;BMP180;54931;52.098;21.006;2022-12-15T10:37:05;99493.40;;;-3.00
68127;BMP180;54931;52.098;21.006;2022-12-15T10:39:40;99492.80;;;-3.06
68127;BMP180;54931;52.098;21.006;2022-12-15T10:44:54;99507.60;;;-3.10
68127;BMP180;54931;52.098;21.006;2022-12-15T10:47:29;99506.60;;;-3.10
68127;BMP180;54931;52.098;21.006;2022-12-15T10:50:22;99511.40;;;-3.10
68127;BMP180;54931;52.098;21.006;2022-12-15T10:52:51;99515.00;;;-3.14
68127;BMP180;54931;52.098;21.006;2022-12-15T10:55:41;99514.80;;;-3.10
68127;BMP180;54931;52.098;21.006;2022-12-15T10:58:20;99514.80;;;-3.10
68127;BMP180;54931;52.098;21.006;2022-12-15T11:01:07;99517.00;;;-3.10
68127;BMP180;54931;52.098;21.006;2022-12-15T11:03:37;99519.00;;;-3.00
68127;BMP180;54931;52.098;21.006;2022-12-15T11:06:24;99517.60;;;-3.00
68127;BMP180;54931;52.098;21.006;2022-12-15T11:08:57;99519.00;;;-2.90
68127;BMP180;54931;52.098;21.006;2022-12-15T11:11:45;99523.20;;;-3.00
68127;BMP180;54931;52.098;21.006;2022-12-15T11:14:49;99518.80;;;-2.90
68127;BMP180;54931;52.098;21.006;2022-12-15T11:17:22;99522.60;;;-2.90
68127;BMP180;54931;52.098;21.006;2022-12-15T11:20:06;99522.40;;;-2.92
68127;BMP180;54931;52.098;21.006;2022-12-15T11:22:52;99522.00;;;-3.00
68127;BMP180;54931;52.098;21.006;2022-12-15T11:28:40;99540.80;;;-3.10
68127;BMP180;54931;52.098;21.006;2022-12-15T11:31:42;99547.80;;;-3.10
68127;BMP180;54931;52.098;21.006;2022-12-15T11:34:16;99553.80;;;-3.18
68127;BMP180;54931;52.098;21.006;2022-12-15T11:37:36;99560.20;;;-3.20
68127;BMP180;54931;52.098;21.006;2022-12-15T11:46:20;99568.00;;;-3.26
68127;BMP180;54931;52.098;21.006;2022-12-15T11:54:52;99573.60;;;-3.30
68127;BMP180;54931;52.098;21.006;2022-12-15T11:58:18;99579.00;;;-3.30
68127;BMP180;54931;52.098;21.006;2022-12-15T12:01:46;99583.20;;;-3.36
68127;BMP180;54931;52.098;21.006;2022-12-15T12:04:27;99586.00;;;-3.40
68127;BMP180;54931;52.098;21.006;2022-12-15T12:07:13;99596.20;;;-3.40
68127;BMP180;54931;52.098;21.006;2022-12-15T12:18:56;99612.60;;;-3.60
68127;BMP180;54931;52.098;21.006;2022-12-15T12:21:38;99617.40;;;-3.60
68127;BMP180;54931;52.098;21.006;2022-12-15T12:24:43;99621.80;;;-3.60
68127;BMP180;54931;52.098;21.006;2022-12-15T12:30:20;99630.40;;;-3.56
68127;BMP180;54931;52.098;21.006;2022-12-15T12:32:57;99623.60;;;-3.50
68127;BMP180;54931;52.098;21.006;2022-12-15T12:35:50;99625.40;;;-3.50
68127;BMP180;54931;52.098;21.006;2022-12-15T12:38:28;99624.40;;;-3.50
68127;BMP180;54931;52.098;21.006;2022-12-15T12:41:10;99632.20;;;-3.50
68127;BMP180;54931;52.098;21.006;2022-12-15T12:43:47;99637.60;;;-3.50
68127;BMP180;54931;52.098;21.006;2022-12-15T12:51:52;99648.80;;;-3.50
68127;BMP180;54931;52.098;21.006;2022-12-15T12:59:43;99660.40;;;-3.60
68127;BMP180;54931;52.098;21.006;2022-12-15T13:04:59;99667.40;;;-3.60
68127;BMP180;54931;52.098;21.006;2022-12-15T13:07:37;99678.40;;;-3.60
68127;BMP180;54931;52.098;21.006;2022-12-15T13:15:30;99683.40;;;-3.70
68127;BMP180;54931;52.098;21.006;2022-12-15T13:20:43;99677.00;;;-3.70
68127;BMP180;54931;52.098;21.006;2022-12-15T13:44:40;99716.40;;;-3.90
68127;BMP180;54931;52.098;21.006;2022-12-15T13:47:27;99722.20;;;-3.90
68127;BMP180;54931;52.098;21.006;2022-12-15T13:50:33;99724.40;;;-3.94
68127;BMP180;54931;52.098;21.006;2022-12-15T13:53:06;99735.60;;;-4.00
68127;BMP180;54931;52.098;21.006;2022-12-15T13:55:50;99737.40;;;-3.94
68127;BMP180;54931;52.098;21.006;2022-12-15T13:58:22;99738.00;;;-3.90
68127;BMP180;54931;52.098;21.006;2022-12-15T14:00:55;99744.00;;;-3.90
68127;BMP180;54931;52.098;21.006;2022-12-15T14:03:24;99735.80;;;-3.90
68127;BMP180;54931;52.098;21.006;2022-12-15T14:05:56;99731.20;;;-4.00
68127;BMP180;54931;52.098;21.006;2022-12-15T14:08:27;99736.60;;;-4.00
68127;BMP180;54931;52.098;21.006;2022-12-15T14:10:58;99740.80;;;-4.00
68127;BMP180;54931;52.098;21.006;2022-12-15T14:13:33;99745.00;;;-4.10
68127;BMP180;54931;52.098;21.006;2022-12-15T14:16:25;99745.00;;;-4.10
68127;BMP180;54931;52.098;21.006;2022-12-15T14:19:16;99744.60;;;-4.00
68127;BMP180;54931;52.098;21.006;2022-12-15T14:21:51;99733.40;;;-4.10
68127;BMP180;54931;52.098;21.006;2022-12-15T14:24:31;99741.00;;;-4.14
68127;BMP180;54931;52.098;21.006;2022-12-15T14:26:59;99734.80;;;-4.20
68127;BMP180;54931;52.098;21.006;2022-12-15T14:29:27;99739.20;;;-4.10
68127;BMP180;54931;52.098;21.006;2022-12-15T14:31:57;99735.60;;;-4.10
68127;BMP180;54931;52.098;21.006;2022-12-15T14:34:35;99737.00;;;-4.20
68127;BMP180;54931;52.098;21.006;2022-12-15T14:37:16;99739.20;;;-4.22
68127;BMP180;54931;52.098;21.006;2022-12-15T14:39:47;99739.40;;;-4.20
68127;BMP180;54931;52.098;21.006;2022-12-15T14:42:23;99743.60;;;-4.20
68127;BMP180;54931;52.098;21.006;2022-12-15T14:44:53;99749.60;;;-4.20
68127;BMP180;54931;52.098;21.006;2022-12-15T14:47:33;99749.80;;;-4.30
68127;BMP180;54931;52.098;21.006;2022-12-15T14:50:08;99752.20;;;-4.36
68127;BMP180;54931;52.098;21.006;2022-12-15T14:52:40;99752.20;;;-4.30
68127;BMP180;54931;52.098;21.006;2022-12-15T14:55:34;99757.80;;;-4.24
68127;BMP180;54931;52.098;21.006;2022-12-15T14:58:34;99765.60;;;-4.22
68127;BMP180;54931;52.098;21.006;2022-12-15T15:01:02;99769.40;;;-4.30
68127;BMP180;54931;52.098;21.006;2022-12-15T15:03:37;99768.00;;;-4.40
68127;BMP180;54931;52.098;21.006;2022-12-15T15:06:17;99768.00;;;-4.42
68127;BMP180;54931;52.098;21.006;2022-12-15T15:08:49;99770.60;;;-4.50
68127;BMP180;54931;52.098;21.006;2022-12-15T15:11:31;99779.00;;;-4.50
68127;BMP180;54931;52.098;21.006;2022-12-15T15:14:10;99777.80;;;-4.52
68127;BMP180;54931;52.098;21.006;2022-12-15T15:16:40;99776.40;;;-4.48
68127;BMP180;54931;52.098;21.006;2022-12-15T15:19:21;99778.60;;;-4.40
68127;BMP180;54931;52.098;21.006;2022-12-15T15:21:49;99784.20;;;-4.40
68127;BMP180;54931;52.098;21.006;2022-12-15T15:24:38;99787.80;;;-4.40
68127;BMP180;54931;52.098;21.006;2022-12-15T15:27:33;99787.20;;;-4.50
68127;BMP180;54931;52.098;21.006;2022-12-15T15:30:22;99789.00;;;-4.46
68127;BMP180;54931;52.098;21.006;2022-12-15T15:32:56;99793.60;;;-4.40
68127;BMP180;54931;52.098;21.006;2022-12-15T15:35:31;99797.20;;;-4.40
68127;BMP180;54931;52.098;21.006;2022-12-15T15:38:17;99804.00;;;-4.40
68127;BMP180;54931;52.098;21.006;2022-12-15T15:40:56;99790.00;;;-4.40
68127;BMP180;54931;52.098;21.006;2022-12-15T15:43:26;99792.80;;;-4.40
68127;BMP180;54931;52.098;21.006;2022-12-15T15:46:08;99801.60;;;-4.34
68127;BMP180;54931;52.098;21.006;2022-12-15T15:48:54;99805.80;;;-4.30
68127;BMP180;54931;52.098;21.006;2022-12-15T15:51:24;99805.60;;;-4.30
68127;BMP180;54931;52.098;21.006;2022-12-15T15:53:57;99816.60;;;-4.30
68127;BMP180;54931;52.098;21.006;2022-12-15T15:56:27;99822.00;;;-4.30
68127;BMP180;54931;52.098;21.006;2022-12-15T15:59:04;99824.80;;;-4.40
68127;BMP180;54931;52.098;21.006;2022-12-15T16:01:36;99826.00;;;-4.40
68127;BMP180;54931;52.098;21.006;2022-12-15T16:04:04;99828.60;;;-4.40
68127;BMP180;54931;52.098;21.006;2022-12-15T16:06:35;99831.20;;;-4.38
68127;BMP180;54931;52.098;21.006;2022-12-15T16:09:04;99845.60;;;-4.30
68127;BMP180;54931;52.098;21.006;2022-12-15T16:11:33;99850.00;;;-4.30
68127;BMP180;54931;52.098;21.006;2022-12-15T16:14:03;99852.60;;;-4.30
68127;BMP180;54931;52.098;21.006;2022-12-15T16:16:32;99857.20;;;-4.30
68127;BMP180;54931;52.098;21.006;2022-12-15T16:19:00;99857.00;;;-4.30
68127;BMP180;54931;52.098;21.006;2022-12-15T16:21:30;99869.20;;;-4.30
68127;BMP180;54931;52.098;21.006;2022-12-15T16:24:11;99879.40;;;-4.30
68127;BMP180;54931;52.098;21.006;2022-12-15T16:26:46;99884.60;;;-4.30
68127;BMP180;54931;52.098;21.006;2022-12-15T16:29:18;99889.20;;;-4.30
68127;BMP180;54931;52.098;21.006;2022-12-15T16:31:47;99895.00;;;-4.30